sensor_id;sensor_type;location;lat;lon;timestamp;temperature;humidity
23813;DHT22;12087;45.190;5.688;2023-07-31T00:04:34;20.40;97.70
23813;DHT22;12087;45.190;5.688;2023-07-31T00:09:56;20.30;97.60
23813;DHT22;12087;45.190;5.688;2023-07-31T00:15:20;20.30;98.00
23813;DHT22;12087;45.190;5.688;2023-07-31T00:20:43;20.30;98.20
23813;DHT22;12087;45.190;5.688;2023-07-31T00:26:05;20.20;98.20
23813;DHT22;12087;45.190;5.688;2023-07-31T00:31:29;20.20;98.00
23813;DHT22;12087;45.190;5.688;2023-07-31T00:36:51;20.10;98.60
23813;DHT22;12087;45.190;5.688;2023-07-31T00:42:14;20.10;98.90
23813;DHT22;12087;45.190;5.688;2023-07-31T00:47:37;20.10;98.90
23813;DHT22;12087;45.190;5.688;2023-07-31T00:53:00;20.00;98.90
23813;DHT22;12087;45.190;5.688;2023-07-31T00:58:22;20.00;99.30
23813;DHT22;12087;45.190;5.688;2023-07-31T01:03:46;19.90;99.30
23813;DHT22;12087;45.190;5.688;2023-07-31T01:09:16;19.90;98.90
23813;DHT22;12087;45.190;5.688;2023-07-31T01:14:52;19.90;99.20
23813;DHT22;12087;45.190;5.688;2023-07-31T01:20:18;19.80;99.20
23813;DHT22;12087;45.190;5.688;2023-07-31T01:26:05;19.80;99.40
23813;DHT22;12087;45.190;5.688;2023-07-31T01:31:29;19.70;99.60
23813;DHT22;12087;45.190;5.688;2023-07-31T01:36:52;19.70;99.80
23813;DHT22;12087;45.190;5.688;2023-07-31T01:42:16;19.70;99.90
23813;DHT22;12087;45.190;5.688;2023-07-31T01:47:39;19.60;99.90
23813;DHT22;12087;45.190;5.688;2023-07-31T01:53:01;19.60;99.90
23813;DHT22;12087;45.190;5.688;2023-07-31T01:58:25;19.50;99.90
23813;DHT22;12087;45.190;5.688;2023-07-31T02:03:47;19.50;99.90
23813;DHT22;12087;45.190;5.688;2023-07-31T02:09:09;19.50;99.90
23813;DHT22;12087;45.190;5.688;2023-07-31T02:14:32;19.40;99.90
23813;DHT22;12087;45.190;5.688;2023-07-31T02:19:56;19.40;99.90
23813;DHT22;12087;45.190;5.688;2023-07-31T02:25:18;19.40;99.90
23813;DHT22;12087;45.190;5.688;2023-07-31T02:30:44;19.30;99.90
23813;DHT22;12087;45.190;5.688;2023-07-31T02:36:06;19.30;99.90
23813;DHT22;12087;45.190;5.688;2023-07-31T02:41:29;19.30;99.90
23813;DHT22;12087;45.190;5.688;2023-07-31T02:46:52;19.20;99.90
23813;DHT22;12087;45.190;5.688;2023-07-31T02:52:14;19.20;99.90
23813;DHT22;12087;45.190;5.688;2023-07-31T02:57:37;19.20;99.90
23813;DHT22;12087;45.190;5.688;2023-07-31T03:03:00;19.20;99.90
23813;DHT22;12087;45.190;5.688;2023-07-31T03:08:23;19.10;99.90
23813;DHT22;12087;45.190;5.688;2023-07-31T03:13:45;19.00;99.90
23813;DHT22;12087;45.190;5.688;2023-07-31T03:19:08;18.90;99.90
23813;DHT22;12087;45.190;5.688;2023-07-31T03:24:31;18.80;99.90
23813;DHT22;12087;45.190;5.688;2023-07-31T03:29:53;18.70;99.90
23813;DHT22;12087;45.190;5.688;2023-07-31T03:35:17;18.60;99.90
23813;DHT22;12087;45.190;5.688;2023-07-31T03:40:39;18.50;99.90
23813;DHT22;12087;45.190;5.688;2023-07-31T03:46:01;18.60;99.90
23813;DHT22;12087;45.190;5.688;2023-07-31T03:51:26;18.50;99.90
23813;DHT22;12087;45.190;5.688;2023-07-31T03:56:48;18.50;99.90
23813;DHT22;12087;45.190;5.688;2023-07-31T04:02:10;18.60;99.90
23813;DHT22;12087;45.190;5.688;2023-07-31T04:07:36;18.60;99.90
23813;DHT22;12087;45.190;5.688;2023-07-31T04:12:59;18.60;99.90
23813;DHT22;12087;45.190;5.688;2023-07-31T04:18:21;18.60;99.90
23813;DHT22;12087;45.190;5.688;2023-07-31T04:23:45;18.50;99.90
23813;DHT22;12087;45.190;5.688;2023-07-31T04:29:07;18.50;99.90
23813;DHT22;12087;45.190;5.688;2023-07-31T04:34:29;18.40;99.90
23813;DHT22;12087;45.190;5.688;2023-07-31T04:39:53;18.30;99.90
23813;DHT22;12087;45.190;5.688;2023-07-31T04:45:15;18.20;99.90
23813;DHT22;12087;45.190;5.688;2023-07-31T04:50:37;18.30;99.90
23813;DHT22;12087;45.190;5.688;2023-07-31T04:56:01;18.30;99.90
23813;DHT22;12087;45.190;5.688;2023-07-31T05:01:23;18.20;99.90
23813;DHT22;12087;45.190;5.688;2023-07-31T05:06:46;18.30;99.90
23813;DHT22;12087;45.190;5.688;2023-07-31T05:12:10;18.40;99.90
23813;DHT22;12087;45.190;5.688;2023-07-31T05:17:32;18.30;99.90
23813;DHT22;12087;45.190;5.688;2023-07-31T05:22:54;18.20;99.90
23813;DHT22;12087;45.190;5.688;2023-07-31T05:28:18;18.30;99.90
23813;DHT22;12087;45.190;5.688;2023-07-31T05:33:40;18.30;99.90
23813;DHT22;12087;45.190;5.688;2023-07-31T05:39:02;18.40;99.90
23813;DHT22;12087;45.190;5.688;2023-07-31T05:44:29;18.40;99.90
23813;DHT22;12087;45.190;5.688;2023-07-31T05:49:51;18.40;99.90
23813;DHT22;12087;45.190;5.688;2023-07-31T05:55:14;18.40;99.90
23813;DHT22;12087;45.190;5.688;2023-07-31T06:00:38;18.40;99.90
23813;DHT22;12087;45.190;5.688;2023-07-31T06:06:01;18.60;99.90
23813;DHT22;12087;45.190;5.688;2023-07-31T06:11:25;18.60;99.90
23813;DHT22;12087;45.190;5.688;2023-07-31T06:16:48;18.70;99.90
23813;DHT22;12087;45.190;5.688;2023-07-31T06:22:10;18.70;99.90
23813;DHT22;12087;45.190;5.688;2023-07-31T06:27:33;18.70;99.90
23813;DHT22;12087;45.190;5.688;2023-07-31T06:32:56;18.90;99.90
23813;DHT22;12087;45.190;5.688;2023-07-31T06:38:21;18.90;99.90
23813;DHT22;12087;45.190;5.688;2023-07-31T06:43:44;19.00;99.90
23813;DHT22;12087;45.190;5.688;2023-07-31T06:49:07;19.10;99.90
23813;DHT22;12087;45.190;5.688;2023-07-31T06:54:29;19.30;99.90
23813;DHT22;12087;45.190;5.688;2023-07-31T06:59:52;19.30;99.90
23813;DHT22;12087;45.190;5.688;2023-07-31T07:05:16;19.40;99.90
23813;DHT22;12087;45.190;5.688;2023-07-31T07:10:38;19.50;99.90
23813;DHT22;12087;45.190;5.688;2023-07-31T07:16:00;19.70;99.90
23813;DHT22;12087;45.190;5.688;2023-07-31T07:21:24;19.80;99.90
23813;DHT22;12087;45.190;5.688;2023-07-31T07:26:46;19.90;99.90
23813;DHT22;12087;45.190;5.688;2023-07-31T07:32:08;19.90;99.90
23813;DHT22;12087;45.190;5.688;2023-07-31T07:37:34;20.00;99.90
23813;DHT22;12087;45.190;5.688;2023-07-31T07:42:56;20.10;99.90
23813;DHT22;12087;45.190;5.688;2023-07-31T07:48:18;20.20;99.90
23813;DHT22;12087;45.190;5.688;2023-07-31T07:53:45;20.20;99.90
23813;DHT22;12087;45.190;5.688;2023-07-31T07:59:07;20.30;99.90
23813;DHT22;12087;45.190;5.688;2023-07-31T08:04:29;20.50;99.90
23813;DHT22;12087;45.190;5.688;2023-07-31T08:09:57;20.70;99.90
23813;DHT22;12087;45.190;5.688;2023-07-31T08:15:19;20.70;99.90
23813;DHT22;12087;45.190;5.688;2023-07-31T08:20:41;20.80;99.90
23813;DHT22;12087;45.190;5.688;2023-07-31T08:26:04;21.00;99.90
23813;DHT22;12087;45.190;5.688;2023-07-31T08:31:27;21.10;99.90
23813;DHT22;12087;45.190;5.688;2023-07-31T08:36:50;21.30;99.90
23813;DHT22;12087;45.190;5.688;2023-07-31T08:42:13;21.60;99.90
23813;DHT22;12087;45.190;5.688;2023-07-31T08:47:36;21.70;99.90
23813;DHT22;12087;45.190;5.688;2023-07-31T08:52:58;22.00;99.90
23813;DHT22;12087;45.190;5.688;2023-07-31T08:58:23;22.10;99.90
23813;DHT22;12087;45.190;5.688;2023-07-31T09:03:46;22.30;99.90
23813;DHT22;12087;45.190;5.688;2023-07-31T09:09:09;22.40;99.90
23813;DHT22;12087;45.190;5.688;2023-07-31T09:14:33;22.50;99.90
23813;DHT22;12087;45.190;5.688;2023-07-31T09:19:56;22.50;99.90
23813;DHT22;12087;45.190;5.688;2023-07-31T09:25:20;22.60;99.90
23813;DHT22;12087;45.190;5.688;2023-07-31T09:30:49;22.70;99.90
23813;DHT22;12087;45.190;5.688;2023-07-31T09:36:12;22.80;99.90
23813;DHT22;12087;45.190;5.688;2023-07-31T09:41:36;22.90;99.90
23813;DHT22;12087;45.190;5.688;2023-07-31T09:47:00;23.20;99.90
23813;DHT22;12087;45.190;5.688;2023-07-31T09:52:22;23.40;99.90
23813;DHT22;12087;45.190;5.688;2023-07-31T09:57:48;23.60;99.70
23813;DHT22;12087;45.190;5.688;2023-07-31T10:03:12;23.90;99.90
23813;DHT22;12087;45.190;5.688;2023-07-31T10:08:36;24.00;98.70
23813;DHT22;12087;45.190;5.688;2023-07-31T10:13:59;24.20;98.80
23813;DHT22;12087;45.190;5.688;2023-07-31T10:19:23;24.40;98.80
23813;DHT22;12087;45.190;5.688;2023-07-31T10:24:46;24.70;98.90
23813;DHT22;12087;45.190;5.688;2023-07-31T10:30:11;25.00;98.30
23813;DHT22;12087;45.190;5.688;2023-07-31T10:35:35;25.40;97.40
23813;DHT22;12087;45.190;5.688;2023-07-31T10:41:08;25.60;96.50
23813;DHT22;12087;45.190;5.688;2023-07-31T10:46:30;25.80;94.30
23813;DHT22;12087;45.190;5.688;2023-07-31T10:51:56;26.10;94.50
23813;DHT22;12087;45.190;5.688;2023-07-31T10:57:21;26.40;94.70
23813;DHT22;12087;45.190;5.688;2023-07-31T11:02:56;26.70;94.20
23813;DHT22;12087;45.190;5.688;2023-07-31T11:08:21;27.00;93.90
23813;DHT22;12087;45.190;5.688;2023-07-31T11:13:47;27.40;91.00
23813;DHT22;12087;45.190;5.688;2023-07-31T11:19:10;27.50;90.20
23813;DHT22;12087;45.190;5.688;2023-07-31T11:24:34;27.70;89.20
23813;DHT22;12087;45.190;5.688;2023-07-31T11:30:00;28.00;88.40
23813;DHT22;12087;45.190;5.688;2023-07-31T11:35:23;28.20;86.20
23813;DHT22;12087;45.190;5.688;2023-07-31T11:40:47;28.50;84.30
23813;DHT22;12087;45.190;5.688;2023-07-31T11:46:09;28.70;83.40
23813;DHT22;12087;45.190;5.688;2023-07-31T11:51:31;29.00;82.80
23813;DHT22;12087;45.190;5.688;2023-07-31T11:56:55;29.00;82.60
23813;DHT22;12087;45.190;5.688;2023-07-31T12:02:18;29.50;80.70
23813;DHT22;12087;45.190;5.688;2023-07-31T12:07:46;29.70;81.40
23813;DHT22;12087;45.190;5.688;2023-07-31T12:13:11;29.70;77.60
23813;DHT22;12087;45.190;5.688;2023-07-31T12:18:36;30.20;78.00
23813;DHT22;12087;45.190;5.688;2023-07-31T12:23:58;30.00;75.40
23813;DHT22;12087;45.190;5.688;2023-07-31T12:29:22;29.90;76.40
23813;DHT22;12087;45.190;5.688;2023-07-31T12:34:44;29.90;76.70
23813;DHT22;12087;45.190;5.688;2023-07-31T12:40:07;30.00;74.90
23813;DHT22;12087;45.190;5.688;2023-07-31T12:45:31;30.20;74.60
23813;DHT22;12087;45.190;5.688;2023-07-31T12:50:54;30.30;72.40
23813;DHT22;12087;45.190;5.688;2023-07-31T12:56:16;30.40;72.70
23813;DHT22;12087;45.190;5.688;2023-07-31T13:01:40;30.70;73.40
23813;DHT22;12087;45.190;5.688;2023-07-31T13:07:03;30.60;71.00
23813;DHT22;12087;45.190;5.688;2023-07-31T13:12:25;30.80;71.50
23813;DHT22;12087;45.190;5.688;2023-07-31T13:17:49;30.90;70.40
23813;DHT22;12087;45.190;5.688;2023-07-31T13:23:11;31.10;68.50
23813;DHT22;12087;45.190;5.688;2023-07-31T13:28:33;31.10;69.50
23813;DHT22;12087;45.190;5.688;2023-07-31T13:33:57;31.30;67.90
23813;DHT22;12087;45.190;5.688;2023-07-31T13:39:19;31.50;67.60
23813;DHT22;12087;45.190;5.688;2023-07-31T13:44:41;31.50;65.20
23813;DHT22;12087;45.190;5.688;2023-07-31T13:50:06;31.50;65.00
23813;DHT22;12087;45.190;5.688;2023-07-31T13:55:28;31.30;68.70
23813;DHT22;12087;45.190;5.688;2023-07-31T14:00:50;31.40;67.50
23813;DHT22;12087;45.190;5.688;2023-07-31T14:06:14;31.40;67.20
23813;DHT22;12087;45.190;5.688;2023-07-31T14:11:36;31.70;65.90
23813;DHT22;12087;45.190;5.688;2023-07-31T14:16:58;31.60;63.00
23813;DHT22;12087;45.190;5.688;2023-07-31T14:22:29;31.50;62.60
23813;DHT22;12087;45.190;5.688;2023-07-31T14:27:51;31.40;62.20
23813;DHT22;12087;45.190;5.688;2023-07-31T14:33:13;31.30;61.60
23813;DHT22;12087;45.190;5.688;2023-07-31T14:38:37;31.00;62.20
23813;DHT22;12087;45.190;5.688;2023-07-31T14:43:59;30.80;60.10
23813;DHT22;12087;45.190;5.688;2023-07-31T14:49:22;30.70;60.70
23813;DHT22;12087;45.190;5.688;2023-07-31T14:54:45;30.60;62.80
23813;DHT22;12087;45.190;5.688;2023-07-31T15:00:08;30.40;63.60
23813;DHT22;12087;45.190;5.688;2023-07-31T15:05:31;30.40;61.70
23813;DHT22;12087;45.190;5.688;2023-07-31T15:10:54;30.20;60.90
23813;DHT22;12087;45.190;5.688;2023-07-31T15:16:18;29.90;60.50
23813;DHT22;12087;45.190;5.688;2023-07-31T15:21:40;29.80;60.50
23813;DHT22;12087;45.190;5.688;2023-07-31T15:27:05;29.70;62.40
23813;DHT22;12087;45.190;5.688;2023-07-31T15:32:29;29.60;62.80
23813;DHT22;12087;45.190;5.688;2023-07-31T15:37:51;29.60;64.60
23813;DHT22;12087;45.190;5.688;2023-07-31T15:43:15;29.40;64.40
23813;DHT22;12087;45.190;5.688;2023-07-31T15:48:38;29.30;67.00
23813;DHT22;12087;45.190;5.688;2023-07-31T15:54:00;29.20;65.90
23813;DHT22;12087;45.190;5.688;2023-07-31T15:59:24;29.20;66.20
23813;DHT22;12087;45.190;5.688;2023-07-31T16:04:46;29.10;64.70
23813;DHT22;12087;45.190;5.688;2023-07-31T16:10:09;29.00;64.50
23813;DHT22;12087;45.190;5.688;2023-07-31T16:15:32;28.90;65.50
23813;DHT22;12087;45.190;5.688;2023-07-31T16:20:55;28.90;64.40
23813;DHT22;12087;45.190;5.688;2023-07-31T16:26:17;28.80;66.50
23813;DHT22;12087;45.190;5.688;2023-07-31T16:31:40;28.70;65.80
23813;DHT22;12087;45.190;5.688;2023-07-31T16:37:03;28.60;66.00
23813;DHT22;12087;45.190;5.688;2023-07-31T16:42:25;28.60;66.30
23813;DHT22;12087;45.190;5.688;2023-07-31T16:47:49;28.50;67.10
23813;DHT22;12087;45.190;5.688;2023-07-31T16:53:11;28.50;67.30
23813;DHT22;12087;45.190;5.688;2023-07-31T16:58:33;28.40;67.70
23813;DHT22;12087;45.190;5.688;2023-07-31T17:03:57;28.30;66.20
23813;DHT22;12087;45.190;5.688;2023-07-31T17:09:20;28.30;67.80
23813;DHT22;12087;45.190;5.688;2023-07-31T17:14:43;28.20;66.40
23813;DHT22;12087;45.190;5.688;2023-07-31T17:20:08;28.10;66.80
23813;DHT22;12087;45.190;5.688;2023-07-31T17:25:30;28.10;67.70
23813;DHT22;12087;45.190;5.688;2023-07-31T17:30:52;28.00;67.70
23813;DHT22;12087;45.190;5.688;2023-07-31T17:36:16;27.80;68.40
23813;DHT22;12087;45.190;5.688;2023-07-31T17:41:38;27.60;68.70
23813;DHT22;12087;45.190;5.688;2023-07-31T17:47:02;27.40;69.50
23813;DHT22;12087;45.190;5.688;2023-07-31T17:52:26;27.30;68.90
23813;DHT22;12087;45.190;5.688;2023-07-31T17:57:48;27.20;71.30
23813;DHT22;12087;45.190;5.688;2023-07-31T18:03:10;27.10;70.20
23813;DHT22;12087;45.190;5.688;2023-07-31T18:08:34;27.00;70.40
23813;DHT22;12087;45.190;5.688;2023-07-31T18:13:57;26.90;70.40
23813;DHT22;12087;45.190;5.688;2023-07-31T18:19:19;26.80;70.80
23813;DHT22;12087;45.190;5.688;2023-07-31T18:24:43;26.70;70.00
23813;DHT22;12087;45.190;5.688;2023-07-31T18:30:07;26.70;70.80
23813;DHT22;12087;45.190;5.688;2023-07-31T18:35:29;26.50;72.10
23813;DHT22;12087;45.190;5.688;2023-07-31T18:40:53;26.50;72.90
23813;DHT22;12087;45.190;5.688;2023-07-31T18:46:15;26.30;74.10
23813;DHT22;12087;45.190;5.688;2023-07-31T18:51:38;26.20;75.40
23813;DHT22;12087;45.190;5.688;2023-07-31T18:57:02;26.10;76.30
23813;DHT22;12087;45.190;5.688;2023-07-31T19:02:25;26.00;76.50
23813;DHT22;12087;45.190;5.688;2023-07-31T19:07:47;25.80;74.80
23813;DHT22;12087;45.190;5.688;2023-07-31T19:13:11;25.70;75.10
23813;DHT22;12087;45.190;5.688;2023-07-31T19:18:34;25.50;76.60
23813;DHT22;12087;45.190;5.688;2023-07-31T19:23:57;25.50;74.10
23813;DHT22;12087;45.190;5.688;2023-07-31T19:29:20;25.40;75.90
23813;DHT22;12087;45.190;5.688;2023-07-31T19:34:43;25.10;76.80
23813;DHT22;12087;45.190;5.688;2023-07-31T19:40:06;25.00;78.20
23813;DHT22;12087;45.190;5.688;2023-07-31T19:45:30;24.90;77.20
23813;DHT22;12087;45.190;5.688;2023-07-31T19:50:52;24.80;80.20
23813;DHT22;12087;45.190;5.688;2023-07-31T19:56:14;24.70;79.30
23813;DHT22;12087;45.190;5.688;2023-07-31T20:01:38;24.50;80.00
23813;DHT22;12087;45.190;5.688;2023-07-31T20:07:00;24.50;81.40
23813;DHT22;12087;45.190;5.688;2023-07-31T20:12:22;24.50;80.90
23813;DHT22;12087;45.190;5.688;2023-07-31T20:17:48;24.40;81.80
23813;DHT22;12087;45.190;5.688;2023-07-31T20:23:10;24.40;81.80
23813;DHT22;12087;45.190;5.688;2023-07-31T20:28:32;24.20;82.50
23813;DHT22;12087;45.190;5.688;2023-07-31T20:33:56;24.20;82.60
23813;DHT22;12087;45.190;5.688;2023-07-31T20:39:18;24.10;82.80
23813;DHT22;12087;45.190;5.688;2023-07-31T20:44:40;24.10;83.20
23813;DHT22;12087;45.190;5.688;2023-07-31T20:50:05;24.00;84.00
23813;DHT22;12087;45.190;5.688;2023-07-31T20:55:27;24.00;84.70
23813;DHT22;12087;45.190;5.688;2023-07-31T21:00:50;23.90;86.00
23813;DHT22;12087;45.190;5.688;2023-07-31T21:06:14;23.90;86.20
23813;DHT22;12087;45.190;5.688;2023-07-31T21:11:37;23.80;87.20
23813;DHT22;12087;45.190;5.688;2023-07-31T21:16:59;23.70;85.70
23813;DHT22;12087;45.190;5.688;2023-07-31T21:22:23;23.70;86.00
23813;DHT22;12087;45.190;5.688;2023-07-31T21:27:46;23.60;84.90
23813;DHT22;12087;45.190;5.688;2023-07-31T21:33:08;23.40;85.90
23813;DHT22;12087;45.190;5.688;2023-07-31T21:38:32;23.40;87.20
23813;DHT22;12087;45.190;5.688;2023-07-31T21:43:54;23.30;87.30
23813;DHT22;12087;45.190;5.688;2023-07-31T21:49:16;23.20;87.60
23813;DHT22;12087;45.190;5.688;2023-07-31T21:54:39;23.10;88.20
23813;DHT22;12087;45.190;5.688;2023-07-31T22:00:03;23.10;89.00
23813;DHT22;12087;45.190;5.688;2023-07-31T22:05:25;23.00;89.20
23813;DHT22;12087;45.190;5.688;2023-07-31T22:10:49;23.00;89.10
23813;DHT22;12087;45.190;5.688;2023-07-31T22:16:11;23.00;89.30
23813;DHT22;12087;45.190;5.688;2023-07-31T22:21:33;22.90;90.00
23813;DHT22;12087;45.190;5.688;2023-07-31T22:26:57;22.80;89.90
23813;DHT22;12087;45.190;5.688;2023-07-31T22:32:19;22.70;90.70
23813;DHT22;12087;45.190;5.688;2023-07-31T22:37:42;22.70;90.20
23813;DHT22;12087;45.190;5.688;2023-07-31T22:43:05;22.60;90.60
23813;DHT22;12087;45.190;5.688;2023-07-31T22:48:29;22.60;90.90
23813;DHT22;12087;45.190;5.688;2023-07-31T22:53:51;22.60;90.30
23813;DHT22;12087;45.190;5.688;2023-07-31T22:59:15;22.50;90.90
23813;DHT22;12087;45.190;5.688;2023-07-31T23:04:38;22.40;91.30
23813;DHT22;12087;45.190;5.688;2023-07-31T23:10:01;22.30;91.70
23813;DHT22;12087;45.190;5.688;2023-07-31T23:15:25;22.20;91.50
23813;DHT22;12087;45.190;5.688;2023-07-31T23:20:49;22.20;92.20
23813;DHT22;12087;45.190;5.688;2023-07-31T23:26:12;22.00;91.70
23813;DHT22;12087;45.190;5.688;2023-07-31T23:31:36;21.90;92.30
23813;DHT22;12087;45.190;5.688;2023-07-31T23:36:58;21.90;91.70
23813;DHT22;12087;45.190;5.688;2023-07-31T23:42:21;21.80;92.30
23813;DHT22;12087;45.190;5.688;2023-07-31T23:47:46;21.70;92.40
23813;DHT22;12087;45.190;5.688;2023-07-31T23:53:09;21.70;93.00
23813;DHT22;12087;45.190;5.688;2023-07-31T23:58:31;21.60;92.90
